Time;durP1;ratioP1;P1;durP2;ratioP2;P2;SDS_P1;SDS_P2;PMS_P1;PMS_P2;Temp;Humidity;BMP_temperature;BMP_pressure;BME280_temperature;BME280_humidity;BME280_pressure;Samples;Min_cycle;Max_cycle;Signal;HPM_P1;HPM_P2
2022/05/02 00:00:38;;;;;;;;;;;;;;;;;;5060019;28;1949;-75
2022/05/02 00:03:03;;;;;;;;;;;;;;;;;;5062641;28;1259;-74
2022/05/02 00:05:28;;;;;;;;;;;;;;;;;;5062895;28;1519;-74
2022/05/02 00:07:54;;;;;;;;;;;;;;;;;;5062582;28;1366;-74
2022/05/02 00:10:19;;;;;;;;;;;;;;;;;;5061095;28;1609;-74
2022/05/02 00:12:44;;;;;;;;;;;;;;;;;;5061934;28;1735;-74
2022/05/02 00:15:10;;;;;;;;;;;;;;;;;;5078920;28;1600;-73
2022/05/02 00:20:19;;;;;;;;;;;;;;;;;;5062403;28;1890;-75
2022/05/02 00:22:47;;;;;;;;;;;;;;;;;;5061930;28;1632;-75
2022/05/02 00:25:12;;;;;;;;;;;;;;;;;;5061341;28;1247;-75
2022/05/02 00:27:39;;;;;;;;;;;;;;;;;;5060281;28;1604;-75
2022/05/02 00:30:05;;;;;;;;;;;;;;;;;;5062422;28;1247;-75
2022/05/02 00:32:30;;;;;;;;;;;;;;;;;;5059072;28;1624;-75
2022/05/02 00:34:56;;;;;;;;;;;;;;;;;;5061122;28;1600;-75
2022/05/02 00:37:21;;;;;;;;;;;;;;;;;;5058769;28;1457;-75
2022/05/02 00:39:46;;;;;;;;;;;;;;;;;;5060596;28;1910;-75
2022/05/02 00:42:11;;;;;;;;;;;;;;;;;;5059568;28;1624;-76
2022/05/02 00:44:40;;;;;;;;;;;;;;;;;;5061687;28;1627;-76
2022/05/02 00:47:05;;;;;;;;;;;;;;;;;;5061372;28;1305;-76
2022/05/02 00:49:33;;;;;;;;;;;;;;;;;;5061024;28;1601;-76
2022/05/02 00:51:58;;;;;;;;;;;;;;;;;;5059683;28;1278;-77
2022/05/02 00:54:24;;;;;;;;;;;;;;;;;;5059620;28;1485;-75
2022/05/02 00:56:49;;;;;;;;;;;;;;;;;;5061439;28;1412;-75
2022/05/02 00:59:15;;;;;;;;;;;;;;;;;;5061047;28;1894;-76
2022/05/02 01:01:40;;;;;;;;;;;;;;;;;;5060158;28;1505;-74
2022/05/02 01:04:06;;;;;;;;;;;;;;;;;;5074315;28;1513;-73
2022/05/02 01:09:15;;;;;;;;;;;;;;;;;;5059098;28;1671;-74
2022/05/02 01:11:40;;;;;;;;;;;;;;;;;;5060227;28;1604;-73
2022/05/02 01:14:07;;;;;;;;;;;;;;;;;;5060110;28;1667;-73
2022/05/02 01:16:33;;;;;;;;;;;;;;;;;;5059896;28;1575;-75
2022/05/02 01:18:59;;;;;;;;;;;;;;;;;;5061043;28;1968;-75
2022/05/02 01:21:25;;;;;;;;;;;;;;;;;;5061794;28;1635;-75
2022/05/02 01:23:51;;;;;;;;;;;;;;;;;;5056721;28;1628;-75
2022/05/02 01:26:17;;;;;;;;;;;;;;;;;;5060645;28;1635;-75
2022/05/02 01:28:43;;;;;;;;;;;;;;;;;;5060169;28;1688;-75
2022/05/02 01:31:08;;;;;;;;;;;;;;;;;;5060661;28;1553;-74
2022/05/02 01:33:34;;;;;;;;;;;;;;;;;;5061264;28;1496;-75
2022/05/02 01:35:59;;;;;;;;;;;;;;;;;;5061788;28;1076;-75
2022/05/02 01:38:24;;;;;;;;;;;;;;;;;;5057263;28;1536;-74
2022/05/02 01:40:50;;;;;;;;;;;;;;;;;;5060997;28;1886;-74
2022/05/02 01:43:15;;;;;;;;;;;;;;;;;;5059251;28;1675;-74
2022/05/02 01:45:40;;;;;;;;;;;;;;;;;;5058922;28;1882;-74
2022/05/02 01:48:06;;;;;;;;;;;;;;;;;;5060653;28;1390;-74
2022/05/02 01:50:34;;;;;;;;;;;;;;;;;;5060523;28;1572;-75
2022/05/02 01:52:59;;;;;;;;;;;;;;;;;;5057968;28;1509;-74
2022/05/02 01:55:24;;;;;;;;;;;;;;;;;;5061147;28;1274;-74
2022/05/02 01:57:49;;;;;;;;;;;;;;;;;;5059363;28;1635;-73
2022/05/02 02:00:15;;;;;;;;;;;;;;;;;;5058515;28;1897;-74
2022/05/02 02:02:40;;;;;;;;;;;;;;;;;;5060768;28;1287;-75
2022/05/02 02:07:49;;;;;;;;;;;;;;;;;;5060449;28;1369;-74
2022/05/02 02:10:14;;;;;;;;;;;;;;;;;;5060144;28;1580;-75
2022/05/02 02:12:39;;;;;;;;;;;;;;;;;;5059871;28;1910;-75
2022/05/02 02:15:05;;;;;;;;;;;;;;;;;;5060179;28;1624;-75
2022/05/02 02:17:30;;;;;;;;;;;;;;;;;;5056601;28;1584;-75
2022/05/02 02:19:55;;;;;;;;;;;;;;;;;;5057366;28;1905;-75
2022/05/02 02:22:21;;;;;;;;;;;;;;;;;;5059430;28;1472;-76
2022/05/02 02:24:46;;;;;;;;;;;;;;;;;;5060665;28;1459;-75
2022/05/02 02:27:12;;;;;;;;;;;;;;;;;;5059391;28;1664;-75
2022/05/02 02:29:37;;;;;;;;;;;;;;;;;;5058792;28;1681;-75
2022/05/02 02:32:02;;;;;;;;;;;;;;;;;;5059563;28;1676;-75
2022/05/02 02:34:28;;;;;;;;;;;;;;;;;;5058122;28;1599;-75
2022/05/02 02:36:53;;;;;;;;;;;;;;;;;;5061471;28;1321;-75
2022/05/02 02:39:18;;;;;;;;;;;;;;;;;;5059477;28;1902;-75
2022/05/02 02:41:43;;;;;;;;;;;;;;;;;;5060344;28;1548;-75
2022/05/02 02:44:08;;;;;;;;;;;;;;;;;;5060297;28;1302;-75
2022/05/02 02:46:34;;;;;;;;;;;;;;;;;;5059230;28;1335;-76
2022/05/02 02:48:59;;;;;;;;;;;;;;;;;;5058219;28;1303;-76
2022/05/02 02:51:24;;;;;;;;;;;;;;;;;;5060383;28;1350;-76
2022/05/02 02:53:51;;;;;;;;;;;;;;;;;;5060782;28;1420;-75
2022/05/02 02:56:16;;;;;;;;;;;;;;;;;;5060753;28;1312;-75
2022/05/02 02:58:41;;;;;;;;;;;;;;;;;;5060570;28;1251;-75
2022/05/02 03:01:06;;;;;;;;;;;;;;;;;;5059307;28;1893;-73
2022/05/02 03:03:32;;;;;;;;;;;;;;;;;;5063449;28;1247;-74
2022/05/02 03:06:03;;;;;;;;;;;;;;;;;;5062165;28;1703;-74
2022/05/02 03:08:40;;;;;;;;;;;;;;;;;;5062521;28;1544;-72
2022/05/02 03:11:05;;;;;;;;;;;;;;;;;;5057869;28;1617;-73
2022/05/02 03:13:31;;;;;;;;;;;;;;;;;;5061650;28;1202;-73
2022/05/02 03:15:56;;;;;;;;;;;;;;;;;;5063403;28;1124;-73
2022/05/02 03:18:22;;;;;;;;;;;;;;;;;;5062861;28;1327;-74
2022/05/02 03:20:48;;;;;;;;;;;;;;;;;;5062860;28;1941;-72
2022/05/02 03:23:13;;;;;;;;;;;;;;;;;;5062614;28;1584;-73
2022/05/02 03:25:38;;;;;;;;;;;;;;;;;;5061966;28;1632;-73
2022/05/02 03:28:04;;;;;;;;;;;;;;;;;;5061712;28;1608;-73
2022/05/02 03:30:29;;;;;;;;;;;;;;;;;;5062989;28;1346;-74
2022/05/02 03:32:54;;;;;;;;;;;;;;;;;;5063357;28;1278;-74
2022/05/02 03:35:19;;;;;;;;;;;;;;;;;;5061234;28;1647;-75
2022/05/02 03:37:53;;;;;;;;;;;;;;;;;;5060946;28;1596;-74
2022/05/02 03:40:18;;;;;;;;;;;;;;;;;;5060040;28;1885;-75
2022/05/02 03:42:44;;;;;;;;;;;;;;;;;;5061816;28;1307;-74
2022/05/02 03:45:09;;;;;;;;;;;;;;;;;;5063106;28;1136;-75
2022/05/02 03:47:34;;;;;;;;;;;;;;;;;;5061517;28;1623;-75
2022/05/02 03:49:59;;;;;;;;;;;;;;;;;;5061395;28;1168;-75
2022/05/02 03:52:25;;;;;;;;;;;;;;;;;;5063173;28;1167;-74
2022/05/02 03:54:50;;;;;;;;;;;;;;;;;;5062112;28;1675;-75
2022/05/02 03:57:15;;;;;;;;;;;;;;;;;;5059813;28;1600;-75
2022/05/02 03:59:41;;;;;;;;;;;;;;;;;;5062204;28;1988;-75
2022/05/02 04:02:06;;;;;;;;;;;;;;;;;;5061101;28;1317;-75
2022/05/02 04:04:31;;;;;;;;;;;;;;;;;;5061410;28;1945;-75
2022/05/02 04:06:56;;;;;;;;;;;;;;;;;;5061648;28;1551;-75
2022/05/02 04:09:22;;;;;;;;;;;;;;;;;;5061909;28;1635;-76
2022/05/02 04:11:47;;;;;;;;;;;;;;;;;;5060872;28;1659;-76
2022/05/02 04:14:12;;;;;;;;;;;;;;;;;;5062491;28;1358;-77
2022/05/02 04:16:37;;;;;;;;;;;;;;;;;;5061942;28;1671;-76
2022/05/02 04:19:03;;;;;;;;;;;;;;;;;;5061768;28;1961;-75
2022/05/02 04:21:28;;;;;;;;;;;;;;;;;;5062241;28;1338;-76
2022/05/02 04:23:53;;;;;;;;;;;;;;;;;;5062303;28;1549;-75
2022/05/02 04:26:19;;;;;;;;;;;;;;;;;;5061593;28;1745;-75
2022/05/02 04:28:44;;;;;;;;;;;;;;;;;;5061175;28;1592;-75
2022/05/02 04:31:09;;;;;;;;;;;;;;;;;;5062410;28;1353;-75
2022/05/02 04:33:34;;;;;;;;;;;;;;;;;;5062119;28;1284;-76
2022/05/02 04:35:59;;;;;;;;;;;;;;;;;;5061193;28;1537;-74
2022/05/02 04:38:26;;;;;;;;;;;;;;;;;;5060331;28;1621;-77
2022/05/02 04:40:52;;;;;;;;;;;;;;;;;;5063405;28;1906;-76
2022/05/02 04:43:17;;;;;;;;;;;;;;;;;;5072177;28;1612;-77
2022/05/02 04:45:42;;;;;;;;;;;;;;;;;;5075214;28;1763;-76
2022/05/02 04:48:09;;;;;;;;;;;;;;;;;;5068128;28;1664;-77
2022/05/02 04:50:34;;;;;;;;;;;;;;;;;;5059232;28;1572;-77
2022/05/02 04:52:59;;;;;;;;;;;;;;;;;;5060917;28;1576;-75
2022/05/02 04:55:24;;;;;;;;;;;;;;;;;;5062492;28;1266;-76
2022/05/02 04:57:50;;;;;;;;;;;;;;;;;;5060206;28;1358;-77
2022/05/02 05:00:16;;;;;;;;;;;;;;;;;;5060128;28;1894;-77
2022/05/02 05:02:41;;;;;;;;;;;;;;;;;;5061996;28;1247;-75
2022/05/02 05:05:07;;;;;;;;;;;;;;;;;;5060417;28;1686;-77
2022/05/02 05:07:32;;;;;;;;;;;;;;;;;;5062179;28;1342;-75
2022/05/02 05:09:57;;;;;;;;;;;;;;;;;;5060441;28;1278;-72
2022/05/02 05:12:22;;;;;;;;;;;;;;;;;;5059962;28;1953;-75
2022/05/02 05:18:13;;;;;;;;;;;;;;;;;;5060727;28;1319;-75
2022/05/02 05:20:38;;;;;;;;;;;;;;;;;;5041315;28;1963;-74
2022/05/02 05:23:19;;;;;;;;;;;;;;;;;;5058658;28;1657;-76
2022/05/02 05:26:05;;;;;;;;;;;;;;;;;;5059113;28;1556;-76
2022/05/02 05:28:49;;;;;;;;;;;;;;;;;;5061018;28;1337;-76
2022/05/02 05:31:23;;;;;;;;;;;;;;;;;;5058895;28;1647;-76
2022/05/02 05:33:48;;;;;;;;;;;;;;;;;;5060514;28;1636;-76
2022/05/02 05:36:25;;;;;;;;;;;;;;;;;;5059954;28;1607;-76
2022/05/02 05:39:04;;;;;;;;;;;;;;;;;;5059656;28;1683;-78
2022/05/02 05:41:48;;;;;;;;;;;;;;;;;;5060163;28;1576;-77
2022/05/02 05:44:19;;;;;;;;;;;;;;;;;;5057153;28;1596;-77
2022/05/02 05:46:44;;;;;;;;;;;;;;;;;;5060583;28;1604;-77
2022/05/02 05:49:12;;;;;;;;;;;;;;;;;;5058370;28;1620;-77
2022/05/02 05:51:48;;;;;;;;;;;;;;;;;;5059944;28;1627;-77
2022/05/02 05:54:42;;;;;;;;;;;;;;;;;;5058394;28;1572;-77
2022/05/02 05:57:13;;;;;;;;;;;;;;;;;;5055672;28;1341;-77
2022/05/02 05:59:38;;;;;;;;;;;;;;;;;;5059031;28;1893;-76
2022/05/02 06:02:06;;;;;;;;;;;;;;;;;;5060058;28;1572;-77
2022/05/02 06:04:33;;;;;;;;;;;;;;;;;;5060655;28;1556;-77
2022/05/02 06:06:58;;;;;;;;;;;;;;;;;;5059876;28;1560;-77
2022/05/02 06:09:25;;;;;;;;;;;;;;;;;;5060829;28;1322;-77
2022/05/02 06:11:52;;;;;;;;;;;;;;;;;;5056092;28;1616;-75
2022/05/02 06:14:17;;;;;;;;;;;;;;;;;;5058856;28;1494;-68
2022/05/02 06:19:29;;;;;;;;;;;;;;;;;;5059172;28;1902;-69
2022/05/02 06:21:54;;;;;;;;;;;;;;;;;;5059423;28;1675;-69
2022/05/02 06:24:24;;;;;;;;;;;;;;;;;;5057194;28;1576;-69
2022/05/02 06:26:50;;;;;;;;;;;;;;;;;;5057288;28;1430;-67
2022/05/02 06:29:18;;;;;;;;;;;;;;;;;;5056331;28;1619;-68
2022/05/02 06:31:44;;;;;;;;;;;;;;;;;;5059779;28;1588;-65
2022/05/02 06:34:10;;;;;;;;;;;;;;;;;;5059340;28;1446;-67
2022/05/02 06:36:46;;;;;;;;;;;;;;;;;;5057748;28;1296;-67
2022/05/02 06:39:29;;;;;;;;;;;;;;;;;;5058899;28;1957;-68
2022/05/02 06:42:01;;;;;;;;;;;;;;;;;;5060945;28;902;-66
2022/05/02 06:44:32;;;;;;;;;;;;;;;;;;5052052;28;1674;-67
2022/05/02 06:47:07;;;;;;;;;;;;;;;;;;5058743;28;1641;-69
2022/05/02 06:49:32;;;;;;;;;;;;;;;;;;5055811;28;1450;-70
2022/05/02 06:51:58;;;;;;;;;;;;;;;;;;5060699;28;1081;-67
2022/05/02 06:54:41;;;;;;;;;;;;;;;;;;5060844;28;810;-70
2022/05/02 06:57:15;;;;;;;;;;;;;;;;;;5060700;28;1591;-70
2022/05/02 06:59:46;;;;;;;;;;;;;;;;;;5060732;28;1890;-70
2022/05/02 07:02:11;;;;;;;;;;;;;;;;;;5060797;28;991;-70
2022/05/02 07:04:42;;;;;;;;;;;;;;;;;;5060906;28;857;-70
2022/05/02 07:07:11;;;;;;;;;;;;;;;;;;5060751;28;779;-70
2022/05/02 07:09:47;;;;;;;;;;;;;;;;;;5060509;28;1257;-70
2022/05/02 07:12:25;;;;;;;;;;;;;;;;;;5060311;28;1627;-70
2022/05/02 07:14:50;;;;;;;;;;;;;;;;;;5060726;28;1723;-70
2022/05/02 07:17:24;;;;;;;;;;;;;;;;;;5060462;28;1459;-70
2022/05/02 07:19:49;;;;;;;;;;;;;;;;;;5060096;28;1969;-70
2022/05/02 07:22:19;;;;;;;;;;;;;;;;;;5060445;28;790;-70
2022/05/02 07:25:03;;;;;;;;;;;;;;;;;;5060973;28;937;-70
2022/05/02 07:27:47;;;;;;;;;;;;;;;;;;5059090;28;1407;-69
2022/05/02 07:30:14;;;;;;;;;;;;;;;;;;5060552;28;786;-70
2022/05/02 07:32:39;;;;;;;;;;;;;;;;;;5058625;28;1370;-70
2022/05/02 07:35:05;;;;;;;;;;;;;;;;;;5060560;28;878;-70
2022/05/02 07:37:31;;;;;;;;;;;;;;;;;;5058713;28;1251;-70
2022/05/02 07:39:56;;;;;;;;;;;;;;;;;;5060329;28;1969;-69
2022/05/02 07:42:23;;;;;;;;;;;;;;;;;;5060553;28;771;-70
2022/05/02 07:44:51;;;;;;;;;;;;;;;;;;5060337;28;799;-69
2022/05/02 07:47:17;;;;;;;;;;;;;;;;;;5061256;28;814;-70
2022/05/02 07:49:50;;;;;;;;;;;;;;;;;;5063431;28;1192;-70
2022/05/02 07:52:23;;;;;;;;;;;;;;;;;;5063850;28;1047;-70
2022/05/02 07:54:49;;;;;;;;;;;;;;;;;;5063762;28;791;-70
2022/05/02 07:57:14;;;;;;;;;;;;;;;;;;5062691;28;827;-69
2022/05/02 07:59:40;;;;;;;;;;;;;;;;;;5063589;28;1955;-70
2022/05/02 08:02:06;;;;;;;;;;;;;;;;;;5063577;28;1511;-69
2022/05/02 08:04:31;;;;;;;;;;;;;;;;;;5063595;28;817;-69
2022/05/02 08:07:15;;;;;;;;;;;;;;;;;;5063430;28;1521;-70
2022/05/02 08:09:40;;;;;;;;;;;;;;;;;;5063188;28;1294;-70
2022/05/02 08:12:17;;;;;;;;;;;;;;;;;;5063634;28;818;-70
2022/05/02 08:14:42;;;;;;;;;;;;;;;;;;5063879;28;1027;-70
2022/05/02 08:17:12;;;;;;;;;;;;;;;;;;5063509;28;1557;-71
2022/05/02 08:19:37;;;;;;;;;;;;;;;;;;5063252;28;1969;-70
2022/05/02 08:28:23;;;;;;;;;;;;;;;;;;5063017;28;1156;-70
2022/05/02 08:30:56;;;;;;;;;;;;;;;;;;5049945;28;1139;-69
2022/05/02 08:33:25;;;;;;;;;;;;;;;;;;5062899;28;849;-70
2022/05/02 08:36:00;;;;;;;;;;;;;;;;;;5062848;28;1608;-70
2022/05/02 08:38:25;;;;;;;;;;;;;;;;;;5061636;28;1124;-70
2022/05/02 08:40:53;;;;;;;;;;;;;;;;;;5063030;28;1890;-70
2022/05/02 08:43:37;;;;;;;;;;;;;;;;;;5063077;28;857;-70
2022/05/02 08:46:21;;;;;;;;;;;;;;;;;;5063121;28;815;-70
2022/05/02 08:51:52;;;;;;;;;;;;;;;;;;5062765;28;1398;-70
2022/05/02 08:54:28;;;;;;;;;;;;;;;;;;5062621;28;928;-70
2022/05/02 08:56:53;;;;;;;;;;;;;;;;;;5062928;28;1466;-70
2022/05/02 08:59:24;;;;;;;;;;;;;;;;;;5061081;28;1953;-70
2022/05/02 09:02:07;;;;;;;;;;;;;;;;;;5062458;28;830;-70
2022/05/02 09:04:44;;;;;;;;;;;;;;;;;;5062726;28;1514;-71
2022/05/02 09:07:19;;;;;;;;;;;;;;;;;;5062661;28;854;-70
2022/05/02 09:09:44;;;;;;;;;;;;;;;;;;5060933;28;843;-70
2022/05/02 09:12:27;;;;;;;;;;;;;;;;;;5063509;28;803;-70
2022/05/02 09:15:11;;;;;;;;;;;;;;;;;;5061371;28;1296;-70
2022/05/02 09:17:55;;;;;;;;;;;;;;;;;;5062318;28;1192;-70
2022/05/02 09:20:26;;;;;;;;;;;;;;;;;;5062530;28;1955;-70
2022/05/02 09:22:59;;;;;;;;;;;;;;;;;;5062146;28;882;-70
2022/05/02 09:25:42;;;;;;;;;;;;;;;;;;5061199;28;965;-69
2022/05/02 09:28:19;;;;;;;;;;;;;;;;;;5062233;28;1220;-70
2022/05/02 09:31:03;;;;;;;;;;;;;;;;;;5061087;28;1320;-71
2022/05/02 09:33:36;;;;;;;;;;;;;;;;;;5061877;28;1675;-70
2022/05/02 09:36:13;;;;;;;;;;;;;;;;;;5062403;28;897;-70
2022/05/02 09:38:50;;;;;;;;;;;;;;;;;;5061517;28;1274;-70
2022/05/02 09:41:34;;;;;;;;;;;;;;;;;;5060769;28;1961;-70
2022/05/02 09:49:54;;;;;;;;;;;;;;;;;;5062288;28;574;-71
2022/05/02 09:52:31;;;;;;;;;;;;;;;;;;5061857;28;1008;-71
2022/05/02 09:57:57;;;;;;;;;;;;;;;;;;5061918;28;1310;-70
2022/05/02 10:03:21;;;;;;;;;;;;;;;;;;5062095;28;728;-70
2022/05/02 10:05:50;;;;;;;;;;;;;;;;;;5061720;28;886;-70
2022/05/02 10:08:24;;;;;;;;;;;;;;;;;;5061424;28;1180;-71
2022/05/02 10:10:56;;;;;;;;;;;;;;;;;;5060900;28;993;-71
2022/05/02 10:13:43;;;;;;;;;;;;;;;;;;5061570;28;1558;-71
2022/05/02 10:16:34;;;;;;;;;;;;;;;;;;5060920;28;1357;-70
2022/05/02 10:18:59;;;;;;;;;;;;;;;;;;5045131;28;1200;-70
2022/05/02 10:21:28;;;;;;;;;;;;;;;;;;5061347;28;1898;-70
2022/05/02 10:23:56;;;;;;;;;;;;;;;;;;5060413;28;1110;-71
2022/05/02 10:26:31;;;;;;;;;;;;;;;;;;5061267;28;858;-70
2022/05/02 10:29:03;;;;;;;;;;;;;;;;;;5061270;28;1223;-70
2022/05/02 10:31:33;;;;;;;;;;;;;;;;;;5061764;28;1487;-70
2022/05/02 10:34:01;;;;;;;;;;;;;;;;;;5061304;28;806;-70
2022/05/02 10:36:35;;;;;;;;;;;;;;;;;;5061110;28;1434;-71
2022/05/02 10:39:09;;;;;;;;;;;;;;;;;;5061090;28;1164;-71
2022/05/02 10:41:45;;;;;;;;;;;;;;;;;;5059756;28;1960;-71
2022/05/02 10:44:14;;;;;;;;;;;;;;;;;;5061262;28;819;-70
2022/05/02 10:46:42;;;;;;;;;;;;;;;;;;5061668;28;921;-71
2022/05/02 10:49:14;;;;;;;;;;;;;;;;;;5060750;28;1200;-70
2022/05/02 10:51:42;;;;;;;;;;;;;;;;;;5061254;28;925;-70
2022/05/02 10:54:09;;;;;;;;;;;;;;;;;;5061262;28;811;-71
2022/05/02 10:56:40;;;;;;;;;;;;;;;;;;5061443;28;810;-71
2022/05/02 10:59:06;;;;;;;;;;;;;;;;;;5060733;28;1191;-71
2022/05/02 11:01:34;;;;;;;;;;;;;;;;;;5061161;28;1898;-70
2022/05/02 11:03:59;;;;;;;;;;;;;;;;;;5059917;28;953;-71
2022/05/02 11:06:40;;;;;;;;;;;;;;;;;;5060347;28;1607;-71
2022/05/02 11:09:08;;;;;;;;;;;;;;;;;;5041068;28;1208;-70
2022/05/02 11:11:42;;;;;;;;;;;;;;;;;;5040544;28;825;-70
2022/05/02 11:14:26;;;;;;;;;;;;;;;;;;5040648;28;790;-71
2022/05/02 11:16:54;;;;;;;;;;;;;;;;;;5040843;28;798;-71
2022/05/02 11:22:16;;;;;;;;;;;;;;;;;;5060931;28;1522;-71
2022/05/02 11:24:42;;;;;;;;;;;;;;;;;;5064152;28;846;-70
2022/05/02 11:27:10;;;;;;;;;;;;;;;;;;5063950;28;1020;-70
2022/05/02 11:29:44;;;;;;;;;;;;;;;;;;5063617;28;1248;-70
2022/05/02 11:32:15;;;;;;;;;;;;;;;;;;5062867;28;838;-70
2022/05/02 11:35:02;;;;;;;;;;;;;;;;;;5064271;28;1016;-71
2022/05/02 11:37:37;;;;;;;;;;;;;;;;;;5064065;28;1221;-71
2022/05/02 11:40:06;;;;;;;;;;;;;;;;;;5063784;28;1891;-71
2022/05/02 11:42:33;;;;;;;;;;;;;;;;;;5063877;28;879;-71
2022/05/02 11:44:58;;;;;;;;;;;;;;;;;;5063622;28;870;-70
2022/05/02 11:47:46;;;;;;;;;;;;;;;;;;5064146;28;1176;-71
2022/05/02 11:50:13;;;;;;;;;;;;;;;;;;5063306;28;1458;-71
2022/05/02 11:52:38;;;;;;;;;;;;;;;;;;5063794;28;901;-69
2022/05/02 11:55:08;;;;;;;;;;;;;;;;;;5062348;28;1421;-70
2022/05/02 11:57:42;;;;;;;;;;;;;;;;;;5063281;28;1522;-70
2022/05/02 12:00:09;;;;;;;;;;;;;;;;;;5063630;28;1878;-70
2022/05/02 12:02:37;;;;;;;;;;;;;;;;;;5063679;28;877;-71
2022/05/02 12:05:10;;;;;;;;;;;;;;;;;;5062029;28;1189;-71
2022/05/02 12:07:38;;;;;;;;;;;;;;;;;;5063557;28;1298;-71
2022/05/02 12:10:04;;;;;;;;;;;;;;;;;;5063233;28;1455;-69
2022/05/02 12:12:31;;;;;;;;;;;;;;;;;;5063045;28;1371;-70
2022/05/02 12:15:00;;;;;;;;;;;;;;;;;;5063164;28;1474;-70
2022/05/02 12:17:25;;;;;;;;;;;;;;;;;;5063310;28;1192;-70
2022/05/02 12:19:51;;;;;;;;;;;;;;;;;;5061784;28;1965;-70
2022/05/02 12:22:20;;;;;;;;;;;;;;;;;;5063073;28;962;-70
2022/05/02 12:24:45;;;;;;;;;;;;;;;;;;5061481;28;1535;-70
2022/05/02 12:27:13;;;;;;;;;;;;;;;;;;5061592;28;968;-71
2022/05/02 12:29:41;;;;;;;;;;;;;;;;;;5062942;28;1188;-70
2022/05/02 12:32:07;;;;;;;;;;;;;;;;;;5063173;28;854;-70
2022/05/02 12:34:43;;;;;;;;;;;;;;;;;;5063162;28;849;-70
2022/05/02 12:37:09;;;;;;;;;;;;;;;;;;5063215;28;1450;-70
2022/05/02 12:39:45;;;;;;;;;;;;;;;;;;5062335;28;1890;-70
2022/05/02 12:42:10;;;;;;;;;;;;;;;;;;5061782;28;1261;-70
2022/05/02 12:44:47;;;;;;;;;;;;;;;;;;5062578;28;981;-70
2022/05/02 12:47:35;;;;;;;;;;;;;;;;;;5061946;28;1132;-70
2022/05/02 12:50:21;;;;;;;;;;;;;;;;;;5057702;28;1137;-71
2022/05/02 12:52:56;;;;;;;;;;;;;;;;;;5062135;28;1545;-70
2022/05/02 12:55:23;;;;;;;;;;;;;;;;;;5063328;28;861;-69
2022/05/02 13:00:39;;;;;;;;;;;;;;;;;;5062719;28;1893;-70
2022/05/02 13:03:14;;;;;;;;;;;;;;;;;;5063385;28;802;-70
2022/05/02 13:05:58;;;;;;;;;;;;;;;;;;5062821;28;1391;-70
2022/05/02 13:08:31;;;;;;;;;;;;;;;;;;5062233;28;1499;-71
2022/05/02 13:11:03;;;;;;;;;;;;;;;;;;5062223;28;918;-70
2022/05/02 13:13:37;;;;;;;;;;;;;;;;;;5063150;28;815;-70
2022/05/02 13:16:11;;;;;;;;;;;;;;;;;;5062470;28;873;-70
2022/05/02 13:18:43;;;;;;;;;;;;;;;;;;5062573;28;1265;-70
2022/05/02 13:21:12;;;;;;;;;;;;;;;;;;5061221;28;1965;-70
2022/05/02 13:23:39;;;;;;;;;;;;;;;;;;5062470;28;834;-70
2022/05/02 13:26:27;;;;;;;;;;;;;;;;;;5062592;28;819;-70
2022/05/02 13:28:55;;;;;;;;;;;;;;;;;;5060659;28;1265;-70
2022/05/02 13:31:27;;;;;;;;;;;;;;;;;;5060839;28;1159;-70
2022/05/02 13:33:53;;;;;;;;;;;;;;;;;;5061665;28;823;-71
2022/05/02 13:36:20;;;;;;;;;;;;;;;;;;5062680;28;826;-70
2022/05/02 13:39:05;;;;;;;;;;;;;;;;;;5060113;28;1471;-70
2022/05/02 13:41:40;;;;;;;;;;;;;;;;;;5060797;28;1962;-70
2022/05/02 13:44:09;;;;;;;;;;;;;;;;;;5062118;28;893;-69
2022/05/02 13:46:50;;;;;;;;;;;;;;;;;;5061427;28;786;-69
2022/05/02 13:49:34;;;;;;;;;;;;;;;;;;5061842;28;1247;-70
2022/05/02 13:52:08;;;;;;;;;;;;;;;;;;5061657;28;1435;-70
2022/05/02 13:54:39;;;;;;;;;;;;;;;;;;5061788;28;1519;-70
2022/05/02 13:57:05;;;;;;;;;;;;;;;;;;5061739;28;1664;-70
2022/05/02 13:59:45;;;;;;;;;;;;;;;;;;5061304;28;1881;-69
2022/05/02 14:02:13;;;;;;;;;;;;;;;;;;5061828;28;1474;-70
2022/05/02 14:04:42;;;;;;;;;;;;;;;;;;5062357;28;1001;-70
2022/05/02 14:07:14;;;;;;;;;;;;;;;;;;5060887;28;1474;-70
2022/05/02 14:09:43;;;;;;;;;;;;;;;;;;5061273;28;1237;-70
2022/05/02 14:12:12;;;;;;;;;;;;;;;;;;5061372;28;830;-70
2022/05/02 14:14:56;;;;;;;;;;;;;;;;;;5061630;28;921;-69
2022/05/02 14:17:26;;;;;;;;;;;;;;;;;;5061400;28;1282;-69
2022/05/02 14:19:51;;;;;;;;;;;;;;;;;;5061397;28;1957;-70
2022/05/02 14:22:31;;;;;;;;;;;;;;;;;;5059904;28;1207;-69
2022/05/02 14:24:58;;;;;;;;;;;;;;;;;;5061325;28;1570;-70
2022/05/02 14:27:24;;;;;;;;;;;;;;;;;;5061123;28;1192;-70
2022/05/02 14:29:49;;;;;;;;;;;;;;;;;;5061144;28;811;-70
2022/05/02 14:32:14;;;;;;;;;;;;;;;;;;5061546;28;894;-71
2022/05/02 14:34:40;;;;;;;;;;;;;;;;;;5061359;28;933;-70
2022/05/02 14:37:07;;;;;;;;;;;;;;;;;;5061269;28;873;-70
2022/05/02 14:39:35;;;;;;;;;;;;;;;;;;5060266;28;1894;-70
2022/05/02 14:42:01;;;;;;;;;;;;;;;;;;5061192;28;1463;-70
2022/05/02 14:44:26;;;;;;;;;;;;;;;;;;5060949;28;1515;-70
2022/05/02 14:46:51;;;;;;;;;;;;;;;;;;5059607;28;889;-70
2022/05/02 14:49:18;;;;;;;;;;;;;;;;;;5059398;28;1334;-70
2022/05/02 14:51:46;;;;;;;;;;;;;;;;;;5059058;28;1268;-70
2022/05/02 14:54:12;;;;;;;;;;;;;;;;;;5060670;28;1624;-70
2022/05/02 14:56:44;;;;;;;;;;;;;;;;;;5059815;28;771;-70
2022/05/02 14:59:11;;;;;;;;;;;;;;;;;;5060791;28;1276;-70
2022/05/02 15:01:38;;;;;;;;;;;;;;;;;;5059337;28;1971;-70
2022/05/02 15:04:05;;;;;;;;;;;;;;;;;;5061033;28;811;-70
2022/05/02 15:06:33;;;;;;;;;;;;;;;;;;5060729;28;786;-70
2022/05/02 15:09:08;;;;;;;;;;;;;;;;;;5060380;28;1658;-70
2022/05/02 15:11:39;;;;;;;;;;;;;;;;;;5060563;28;860;-70
2022/05/02 15:14:17;;;;;;;;;;;;;;;;;;5060834;28;795;-70
2022/05/02 15:17:07;;;;;;;;;;;;;;;;;;5059344;28;985;-70
2022/05/02 15:19:41;;;;;;;;;;;;;;;;;;5060469;28;1965;-70
2022/05/02 15:22:08;;;;;;;;;;;;;;;;;;5060792;28;802;-70
2022/05/02 15:24:41;;;;;;;;;;;;;;;;;;5060650;28;1423;-71
2022/05/02 15:27:24;;;;;;;;;;;;;;;;;;5060120;28;1388;-70
2022/05/02 15:38:55;;;;;;;;;;;;;;;;;;5060449;28;1219;-70
2022/05/02 15:41:39;;;;;;;;;;;;;;;;;;5054469;28;1885;-71
2022/05/02 15:44:08;;;;;;;;;;;;;;;;;;5060431;28;849;-70
2022/05/02 15:46:41;;;;;;;;;;;;;;;;;;5060252;28;798;-70
2022/05/02 15:49:11;;;;;;;;;;;;;;;;;;5060173;28;1273;-70
2022/05/02 15:51:50;;;;;;;;;;;;;;;;;;5060270;28;794;-70
2022/05/02 15:54:18;;;;;;;;;;;;;;;;;;5060596;28;826;-71
2022/05/02 15:57:02;;;;;;;;;;;;;;;;;;5058871;28;1338;-70
2022/05/02 15:59:35;;;;;;;;;;;;;;;;;;5059465;28;1971;-69
2022/05/02 16:02:01;;;;;;;;;;;;;;;;;;5059983;28;1474;-70
2022/05/02 16:04:31;;;;;;;;;;;;;;;;;;5060047;28;968;-70
2022/05/02 16:10:29;;;;;;;;;;;;;;;;;;5060169;28;893;-70
2022/05/02 16:12:42;;;;;;;;;;;;;;;;;;5070719;28;1220;-70
2022/05/02 16:15:11;;;;;;;;;;;;;;;;;;5064794;28;1486;-70
2022/05/02 16:17:37;;;;;;;;;;;;;;;;;;5063063;28;1521;-70
2022/05/02 16:20:02;;;;;;;;;;;;;;;;;;5063174;28;1981;-70
2022/05/02 16:22:28;;;;;;;;;;;;;;;;;;5061952;28;1586;-70
2022/05/02 16:25:00;;;;;;;;;;;;;;;;;;5063349;28;1478;-70
2022/05/02 16:27:25;;;;;;;;;;;;;;;;;;5061690;28;1338;-70
2022/05/02 16:29:56;;;;;;;;;;;;;;;;;;5062878;28;886;-70
2022/05/02 16:32:22;;;;;;;;;;;;;;;;;;5063068;28;997;-71
2022/05/02 16:34:49;;;;;;;;;;;;;;;;;;5063157;28;877;-70
2022/05/02 16:37:15;;;;;;;;;;;;;;;;;;5062853;28;1439;-70
2022/05/02 16:39:40;;;;;;;;;;;;;;;;;;5062596;28;1951;-70
2022/05/02 16:42:05;;;;;;;;;;;;;;;;;;5062903;28;962;-70
2022/05/02 16:44:30;;;;;;;;;;;;;;;;;;5062933;28;882;-71
2022/05/02 16:47:02;;;;;;;;;;;;;;;;;;5062673;28;1024;-71
2022/05/02 16:49:28;;;;;;;;;;;;;;;;;;5062774;28;1270;-71
2022/05/02 16:51:55;;;;;;;;;;;;;;;;;;5062803;28;803;-70
2022/05/02 16:54:21;;;;;;;;;;;;;;;;;;5062674;28;1486;-70
2022/05/02 16:56:46;;;;;;;;;;;;;;;;;;5062855;28;862;-70
2022/05/02 16:59:20;;;;;;;;;;;;;;;;;;5062580;28;1192;-70
2022/05/02 17:01:45;;;;;;;;;;;;;;;;;;5062583;28;1901;-70
2022/05/02 17:04:11;;;;;;;;;;;;;;;;;;5062406;28;897;-70
2022/05/02 17:06:36;;;;;;;;;;;;;;;;;;5062996;28;791;-70
2022/05/02 17:09:09;;;;;;;;;;;;;;;;;;5060632;28;1527;-70
2022/05/02 17:11:34;;;;;;;;;;;;;;;;;;5062358;28;828;-70
2022/05/02 17:13:59;;;;;;;;;;;;;;;;;;5062630;28;1522;-70
2022/05/02 17:16:25;;;;;;;;;;;;;;;;;;5062566;28;865;-70
2022/05/02 17:18:50;;;;;;;;;;;;;;;;;;5062256;28;1303;-70
2022/05/02 17:21:16;;;;;;;;;;;;;;;;;;5059815;28;1945;-70
2022/05/02 17:23:43;;;;;;;;;;;;;;;;;;5062154;28;1506;-70
2022/05/02 17:26:08;;;;;;;;;;;;;;;;;;5062503;28;885;-70
2022/05/02 17:28:38;;;;;;;;;;;;;;;;;;5061953;28;1250;-70
2022/05/02 17:31:04;;;;;;;;;;;;;;;;;;5062135;28;901;-70
2022/05/02 17:33:39;;;;;;;;;;;;;;;;;;5062316;28;767;-70
2022/05/02 17:36:07;;;;;;;;;;;;;;;;;;5061769;28;1455;-71
2022/05/02 17:38:34;;;;;;;;;;;;;;;;;;5061921;28;1553;-70
2022/05/02 17:41:08;;;;;;;;;;;;;;;;;;5062043;28;1890;-70
2022/05/02 17:43:35;;;;;;;;;;;;;;;;;;5062069;28;837;-70
2022/05/02 17:46:02;;;;;;;;;;;;;;;;;;5062064;28;829;-70
2022/05/02 17:48:29;;;;;;;;;;;;;;;;;;5061697;28;1274;-70
2022/05/02 17:50:54;;;;;;;;;;;;;;;;;;5062086;28;798;-70
2022/05/02 17:53:20;;;;;;;;;;;;;;;;;;5061741;28;1530;-69
2022/05/02 17:55:46;;;;;;;;;;;;;;;;;;5061636;28;1517;-69
2022/05/02 17:58:13;;;;;;;;;;;;;;;;;;5060977;28;1488;-70
2022/05/02 18:00:39;;;;;;;;;;;;;;;;;;5061850;28;1901;-69
2022/05/02 18:03:12;;;;;;;;;;;;;;;;;;5061792;28;1466;-70
2022/05/02 18:05:42;;;;;;;;;;;;;;;;;;5061553;28;810;-70
2022/05/02 18:08:07;;;;;;;;;;;;;;;;;;5061535;28;1391;-70
2022/05/02 18:10:34;;;;;;;;;;;;;;;;;;5061120;28;1333;-69
2022/05/02 18:13:09;;;;;;;;;;;;;;;;;;5061869;28;794;-70
2022/05/02 18:15:37;;;;;;;;;;;;;;;;;;5061293;28;905;-70